createdAt,value
2017-04-20T00:00:55.226Z,64.82
2017-04-20T00:01:53.819Z,64.59
2017-04-20T00:02:52.328Z,65.15
2017-04-20T00:03:50.920Z,65.02
2017-04-20T00:05:53.534Z,65.25
2017-04-20T00:06:52.086Z,65.64
2017-04-20T00:07:50.603Z,66.40
2017-04-20T00:08:49.267Z,65.48
2017-04-20T00:09:47.807Z,65.19
2017-04-20T00:10:46.303Z,65.99
2017-04-20T00:11:44.795Z,65.62
2017-04-20T00:12:43.346Z,66.24
2017-04-20T00:13:41.955Z,66.36
2017-04-20T00:14:40.533Z,66.75
2017-04-20T00:15:48.678Z,66.51
2017-04-20T00:16:47.194Z,66.75
2017-04-20T00:17:45.730Z,66.53
2017-04-20T00:18:44.311Z,66.83
2017-04-20T00:19:43.098Z,67.18
2017-04-20T00:20:41.586Z,67.06
2017-04-20T00:21:40.099Z,67.01
2017-04-20T00:22:38.623Z,66.69
2017-04-20T00:23:37.159Z,66.45
2017-04-20T00:24:35.767Z,65.69
2017-04-20T00:25:34.327Z,64.72
2017-04-20T00:26:32.972Z,65.64
2017-04-20T00:27:31.613Z,66.08
2017-04-20T00:28:30.148Z,66.64
2017-04-20T00:29:28.686Z,66.33
2017-04-20T00:30:27.688Z,66.04
2017-04-20T00:31:26.315Z,66.01
2017-04-20T00:32:24.843Z,66.06
2017-04-20T00:33:23.351Z,66.52
2017-04-20T00:34:21.851Z,66.72
2017-04-20T00:35:20.467Z,67.09
2017-04-20T00:36:19.016Z,66.56
2017-04-20T00:37:17.615Z,67.58
2017-04-20T00:38:16.171Z,67.26
2017-04-20T00:39:14.731Z,66.71
2017-04-20T00:40:13.235Z,66.42
2017-04-20T00:41:11.815Z,66.53
2017-04-20T00:42:10.355Z,66.86
2017-04-20T00:43:08.966Z,67.35
2017-04-20T00:44:07.595Z,67.28
2017-04-20T00:45:06.139Z,67.99
2017-04-20T00:46:04.969Z,68.37
2017-04-20T00:47:03.511Z,68.32
2017-04-20T00:48:02.021Z,68.53
2017-04-20T00:49:00.524Z,68.02
2017-04-20T00:49:59.025Z,67.69
2017-04-20T00:50:57.552Z,67.44
2017-04-20T00:51:56.095Z,67.36
2017-04-20T00:52:54.627Z,67.73
2017-04-20T00:53:53.168Z,68.41
2017-04-20T00:54:51.687Z,68.76
2017-04-20T00:55:50.237Z,69.19
2017-04-20T00:56:48.818Z,68.26
2017-04-20T00:57:47.303Z,68.35
2017-04-20T00:58:45.875Z,69.02
2017-04-20T00:59:44.408Z,68.86
2017-04-20T01:00:42.928Z,68.72
2017-04-20T01:01:41.834Z,68.74
2017-04-20T01:02:56.937Z,68.75
2017-04-20T01:03:55.557Z,69.16
2017-04-20T01:04:54.046Z,69.05
2017-04-20T01:05:52.550Z,68.78
2017-04-20T01:06:51.151Z,69.41
2017-04-20T01:07:49.667Z,69.35
2017-04-20T01:08:48.159Z,68.90
2017-04-20T01:09:46.690Z,68.51
2017-04-20T01:10:45.198Z,69.11
2017-04-20T01:11:43.774Z,69.35
2017-04-20T01:12:42.571Z,70.03
2017-04-20T01:13:41.098Z,70.50
2017-04-20T01:14:39.594Z,69.99
2017-04-20T01:15:38.085Z,70.14
2017-04-20T01:16:36.602Z,70.18
2017-04-20T01:17:35.135Z,70.10
2017-04-20T01:18:34.255Z,70.23
2017-04-20T01:19:32.751Z,70.57
2017-04-20T01:20:31.259Z,70.34
2017-04-20T01:21:29.807Z,70.01
2017-04-20T01:22:28.280Z,70.30
2017-04-20T01:23:27.242Z,70.10
2017-04-20T01:24:25.767Z,70.05
2017-04-20T01:25:24.387Z,69.40
2017-04-20T01:26:22.963Z,70.27
2017-04-20T01:27:21.495Z,70.64
2017-04-20T01:28:20.002Z,71.38
2017-04-20T01:29:18.535Z,71.71
2017-04-20T01:30:17.150Z,71.09
2017-04-20T01:31:15.734Z,71.51
2017-04-20T01:32:14.264Z,71.43
2017-04-20T01:34:16.919Z,70.78
2017-04-20T01:35:15.507Z,70.84
2017-04-20T01:36:14.038Z,70.40
2017-04-20T01:37:12.547Z,70.28
2017-04-20T01:38:11.134Z,70.77
2017-04-20T01:39:09.701Z,70.84
2017-04-20T01:40:08.262Z,71.26
2017-04-20T01:41:06.786Z,71.20
2017-04-20T01:42:05.322Z,70.60
2017-04-20T01:43:03.907Z,70.43
2017-04-20T01:44:02.587Z,69.96
2017-04-20T01:45:01.246Z,69.93
2017-04-20T01:45:59.923Z,70.39
2017-04-20T01:46:58.519Z,71.38
2017-04-20T01:47:57.038Z,71.20
2017-04-20T01:48:55.543Z,71.72
2017-04-20T01:49:54.287Z,70.82
2017-04-20T01:50:52.834Z,70.78
2017-04-20T01:51:51.779Z,70.47
2017-04-20T01:52:50.384Z,70.34
2017-04-20T01:53:49.051Z,70.38
2017-04-20T01:54:47.594Z,70.39
2017-04-20T01:55:46.099Z,70.13
2017-04-20T01:56:44.622Z,70.58
2017-04-20T01:57:43.175Z,69.85
2017-04-20T01:58:41.951Z,70.98
2017-04-20T01:59:40.455Z,70.44
2017-04-20T02:00:39.136Z,70.52
2017-04-20T02:01:37.728Z,69.92
2017-04-20T02:02:36.389Z,70.88
2017-04-20T02:03:34.936Z,70.83
2017-04-20T02:04:33.494Z,70.18
2017-04-20T02:05:32.030Z,70.75
2017-04-20T02:06:30.556Z,70.59
2017-04-20T02:07:29.472Z,70.58
2017-04-20T02:08:27.980Z,71.28
2017-04-20T02:09:26.466Z,71.75
2017-04-20T02:10:24.986Z,71.82
2017-04-20T02:11:23.518Z,71.52
2017-04-20T02:12:22.033Z,71.81
2017-04-20T02:13:20.991Z,71.79
2017-04-20T02:14:19.620Z,71.78
2017-04-20T02:15:18.295Z,70.94
2017-04-20T02:16:16.911Z,70.85
2017-04-20T02:17:15.499Z,70.99
2017-04-20T02:18:14.019Z,71.15
2017-04-20T02:19:12.627Z,70.96
2017-04-20T02:20:11.188Z,71.45
2017-04-20T02:21:09.895Z,71.41
2017-04-20T02:22:08.411Z,70.80
2017-04-20T02:23:07.110Z,71.01
2017-04-20T02:24:05.777Z,71.60
2017-04-20T02:25:04.350Z,71.49
2017-04-20T02:26:02.843Z,71.81
2017-04-20T02:27:01.371Z,72.35
2017-04-20T02:27:59.918Z,72.45
2017-04-20T02:28:58.474Z,72.84
2017-04-20T02:29:57.003Z,71.65
2017-04-20T02:30:55.573Z,71.29
2017-04-20T02:31:54.203Z,71.29
2017-04-20T02:32:52.717Z,71.50
2017-04-20T02:33:51.198Z,71.81
2017-04-20T02:34:50.062Z,71.84
2017-04-20T02:35:48.548Z,72.22
2017-04-20T02:36:47.115Z,70.81
2017-04-20T02:37:45.665Z,70.41
2017-04-20T02:38:44.150Z,70.17
2017-04-20T02:39:42.675Z,69.73
2017-04-20T02:40:41.220Z,69.17
2017-04-20T02:41:39.758Z,68.75
2017-04-20T02:42:38.269Z,68.65
2017-04-20T02:43:36.763Z,69.92
2017-04-20T02:44:35.278Z,69.45
2017-04-20T02:45:34.102Z,70.92
2017-04-20T02:46:32.571Z,71.65
2017-04-20T02:47:31.095Z,71.99
2017-04-20T02:48:29.622Z,72.27
2017-04-20T02:49:28.118Z,71.98
2017-04-20T02:50:26.836Z,72.10
2017-04-20T02:51:25.347Z,72.10
2017-04-20T02:52:23.833Z,72.39
2017-04-20T02:53:22.473Z,72.85
2017-04-20T02:54:21.047Z,72.71
2017-04-20T02:55:19.572Z,73.05
2017-04-20T02:56:18.123Z,72.57
2017-04-20T02:57:16.627Z,72.82
2017-04-20T02:58:15.170Z,72.33
2017-04-20T02:59:13.743Z,72.13
2017-04-20T03:00:12.256Z,71.26
2017-04-20T03:01:11.066Z,70.86
2017-04-20T03:02:09.546Z,70.81
2017-04-20T03:03:08.052Z,71.47
2017-04-20T03:04:06.649Z,72.41
2017-04-20T03:05:05.223Z,71.80
2017-04-20T03:06:03.780Z,71.52
2017-04-20T03:07:02.315Z,71.66
2017-04-20T03:08:00.819Z,71.82
2017-04-20T03:08:59.350Z,72.53
2017-04-20T03:09:57.874Z,73.01
2017-04-20T03:10:56.390Z,72.24
2017-04-20T03:11:55.164Z,71.83
2017-04-20T03:12:53.670Z,72.60
2017-04-20T03:13:52.159Z,72.35
2017-04-20T03:14:50.664Z,73.21
2017-04-20T03:15:49.203Z,73.64
2017-04-20T03:16:47.759Z,74.26
2017-04-20T03:17:46.312Z,73.95
2017-04-20T03:18:44.822Z,73.59
2017-04-20T03:19:43.338Z,74.30
2017-04-20T03:20:41.907Z,74.05
2017-04-20T03:21:40.408Z,73.97
2017-04-20T03:22:38.963Z,73.95
2017-04-20T03:23:37.587Z,73.88
2017-04-20T03:24:36.142Z,73.72
2017-04-20T03:25:34.630Z,73.94
2017-04-20T03:26:33.252Z,74.42
2017-04-20T03:27:31.766Z,74.76
2017-04-20T03:28:30.492Z,74.48
2017-04-20T03:29:29.053Z,74.61
2017-04-20T03:30:27.551Z,74.54
2017-04-20T03:31:26.050Z,74.06
2017-04-20T03:32:24.519Z,74.07
2017-04-20T03:33:23.063Z,74.01
2017-04-20T03:34:21.756Z,73.88
2017-04-20T03:35:20.300Z,73.11
2017-04-20T03:36:19.090Z,72.74
2017-04-20T03:37:17.583Z,73.76
2017-04-20T03:38:16.191Z,73.90
2017-04-20T03:39:14.773Z,73.49
2017-04-20T03:40:13.308Z,73.62
2017-04-20T03:41:11.814Z,73.80
2017-04-20T03:42:10.302Z,73.68
2017-04-20T03:43:08.839Z,73.25
2017-04-20T03:44:07.738Z,73.36
2017-04-20T03:45:06.251Z,73.57
2017-04-20T03:46:04.748Z,73.61
2017-04-20T03:47:03.240Z,72.71
2017-04-20T03:48:01.792Z,73.00
2017-04-20T03:49:00.388Z,73.56
2017-04-20T03:49:58.911Z,73.53
2017-04-20T03:50:57.447Z,73.03
2017-04-20T03:51:55.996Z,72.63
2017-04-20T03:52:54.552Z,72.87
2017-04-20T03:53:53.091Z,73.15
2017-04-20T03:54:51.865Z,73.55
2017-04-20T03:55:50.383Z,73.89
2017-04-20T03:56:48.878Z,73.30
2017-04-20T03:57:47.417Z,72.88
2017-04-20T03:58:45.949Z,73.12
2017-04-20T03:59:44.486Z,73.54
2017-04-20T04:00:43.058Z,73.13
2017-04-20T04:01:41.587Z,72.72
2017-04-20T04:02:40.099Z,72.63
2017-04-20T04:03:38.611Z,72.89
2017-04-20T04:04:37.127Z,73.41
2017-04-20T04:05:35.950Z,73.13
2017-04-20T04:06:34.468Z,73.28
2017-04-20T04:07:33.013Z,72.75
2017-04-20T04:08:31.511Z,73.30
2017-04-20T04:09:30.007Z,73.59
2017-04-20T04:10:28.598Z,73.73
2017-04-20T04:11:27.139Z,73.68
2017-04-20T04:12:25.652Z,73.61
2017-04-20T04:13:24.160Z,74.24
2017-04-20T04:14:22.697Z,73.42
2017-04-20T04:15:21.285Z,72.99
2017-04-20T04:16:19.837Z,73.21
2017-04-20T04:17:19.010Z,73.99
2017-04-20T04:18:17.891Z,74.11
2017-04-20T04:19:16.774Z,74.37
2017-04-20T04:20:15.276Z,74.02
2017-04-20T04:21:13.787Z,73.69
2017-04-20T04:22:12.359Z,74.12
2017-04-20T04:23:10.889Z,73.97
2017-04-20T04:24:09.444Z,73.72
2017-04-20T04:25:07.950Z,74.08
2017-04-20T04:26:06.516Z,73.79
2017-04-20T04:27:05.284Z,74.04
2017-04-20T04:28:03.984Z,74.17
2017-04-20T04:29:02.514Z,73.97
2017-04-20T04:30:00.980Z,73.87
2017-04-20T04:30:59.616Z,73.44
2017-04-20T04:31:58.257Z,73.51
2017-04-20T04:32:56.787Z,73.01
2017-04-20T04:33:55.259Z,72.88
2017-04-20T04:34:53.778Z,72.18
2017-04-20T04:35:52.362Z,72.15
2017-04-20T04:36:50.875Z,72.42
2017-04-20T04:37:49.446Z,72.04
2017-04-20T04:38:48.003Z,71.88
2017-04-20T04:39:46.547Z,72.33
2017-04-20T04:40:45.026Z,72.22
2017-04-20T04:41:43.547Z,71.12
2017-04-20T04:42:42.559Z,70.45
2017-04-20T04:43:41.058Z,70.21
2017-04-20T04:44:39.571Z,70.13
2017-04-20T04:45:38.081Z,69.38
2017-04-20T04:46:36.596Z,70.97
2017-04-20T04:47:35.150Z,71.45
2017-04-20T04:48:33.705Z,71.97
2017-04-20T04:49:32.222Z,72.02
2017-04-20T04:50:30.720Z,71.46
2017-04-20T04:51:29.243Z,71.22
2017-04-20T04:52:27.800Z,72.26
2017-04-20T04:53:26.483Z,72.05
2017-04-20T04:54:25.170Z,72.11
2017-04-20T04:55:23.666Z,72.85
2017-04-20T04:56:22.165Z,73.05
2017-04-20T04:57:20.671Z,72.99
2017-04-20T04:58:19.210Z,72.56
2017-04-20T04:59:18.079Z,72.90
2017-04-20T05:00:16.606Z,73.20
2017-04-20T05:01:15.202Z,73.62
2017-04-20T05:02:13.714Z,73.63
2017-04-20T05:03:12.290Z,73.03
2017-04-20T05:04:10.866Z,72.81
2017-04-20T05:05:09.406Z,72.73
2017-04-20T05:06:07.903Z,73.03
2017-04-20T05:07:06.434Z,72.80
2017-04-20T05:08:04.906Z,73.12
2017-04-20T05:09:03.487Z,73.05
2017-04-20T05:10:02.231Z,72.93
2017-04-20T05:11:00.771Z,72.46
2017-04-20T05:11:59.343Z,71.60
2017-04-20T05:12:57.860Z,71.06
2017-04-20T05:13:56.352Z,70.72
2017-04-20T05:14:54.859Z,70.12
2017-04-20T05:15:53.428Z,69.82
2017-04-20T05:16:51.944Z,69.53
2017-04-20T05:17:50.438Z,69.34
2017-04-20T05:18:48.932Z,69.35
2017-04-20T05:19:47.439Z,69.06
2017-04-20T05:20:46.104Z,68.97
2017-04-20T05:21:44.610Z,68.90
2017-04-20T05:22:43.298Z,68.52
2017-04-20T05:23:41.843Z,68.21
2017-04-20T05:24:40.383Z,67.89
2017-04-20T05:25:38.884Z,68.13
2017-04-20T05:26:37.579Z,67.75
2017-04-20T05:27:36.213Z,67.63
2017-04-20T05:28:34.743Z,67.86
2017-04-20T05:29:33.278Z,68.01
2017-04-20T05:30:31.788Z,68.00
2017-04-20T05:31:30.765Z,67.82
2017-04-20T05:32:29.355Z,68.22
2017-04-20T05:33:28.142Z,68.42
2017-04-20T05:34:27.280Z,68.29
2017-04-20T05:35:27.227Z,68.16
2017-04-20T05:36:25.811Z,67.83
2017-04-20T05:37:24.346Z,67.72
2017-04-20T05:38:22.884Z,67.55
2017-04-20T05:39:21.388Z,67.38
2017-04-20T05:40:19.963Z,67.15
2017-04-20T05:41:18.483Z,66.79
2017-04-20T05:42:17.348Z,67.10
2017-04-20T05:43:15.994Z,67.25
2017-04-20T05:44:14.511Z,66.67
2017-04-20T05:45:13.006Z,66.87
2017-04-20T05:46:11.635Z,66.95
2017-04-20T05:47:10.251Z,66.95
2017-04-20T05:48:08.822Z,66.62
2017-04-20T05:49:07.402Z,66.91
2017-04-20T05:50:05.966Z,66.76
2017-04-20T05:51:04.506Z,66.74
2017-04-20T05:52:03.015Z,66.86
2017-04-20T05:53:01.740Z,67.47
2017-04-20T05:54:00.234Z,67.00
2017-04-20T05:54:58.791Z,66.79
2017-04-20T05:55:57.326Z,66.69
2017-04-20T05:56:55.890Z,66.97
2017-04-20T05:57:54.406Z,67.34
2017-04-20T05:58:52.971Z,67.15
2017-04-20T05:59:51.546Z,66.80
2017-04-20T06:00:50.038Z,66.41
2017-04-20T06:01:48.567Z,67.85
2017-04-20T06:02:47.104Z,66.63
2017-04-20T06:03:45.816Z,66.98
2017-04-20T06:04:44.320Z,66.88
2017-04-20T06:05:42.851Z,67.04
2017-04-20T06:06:41.463Z,67.84
2017-04-20T06:07:39.971Z,67.75
2017-04-20T06:08:38.522Z,67.38
2017-04-20T06:09:37.046Z,66.90
2017-04-20T06:10:35.558Z,66.90
2017-04-20T06:11:34.059Z,66.67
2017-04-20T06:12:32.735Z,66.35
2017-04-20T06:13:31.276Z,66.52
2017-04-20T06:14:29.966Z,66.57
2017-04-20T06:15:28.487Z,66.39
2017-04-20T06:16:27.015Z,66.45
2017-04-20T06:17:25.633Z,66.15
2017-04-20T06:18:24.300Z,66.65
2017-04-20T06:19:23.106Z,66.33
2017-04-20T06:20:21.836Z,66.91
2017-04-20T06:21:20.355Z,66.46
2017-04-20T06:22:18.867Z,66.22
2017-04-20T06:23:17.519Z,66.15
2017-04-20T06:24:16.152Z,65.81
2017-04-20T06:25:15.067Z,66.04
2017-04-20T06:26:13.584Z,66.09
2017-04-20T06:27:12.108Z,65.98
2017-04-20T06:28:10.690Z,65.65
2017-04-20T06:29:09.273Z,65.61
2017-04-20T06:30:07.895Z,66.12
2017-04-20T06:31:06.451Z,66.61
2017-04-20T06:32:05.032Z,66.09
2017-04-20T06:33:03.579Z,66.11
2017-04-20T06:34:02.071Z,66.24
2017-04-20T06:35:00.612Z,66.08
2017-04-20T06:35:59.143Z,66.68
2017-04-20T06:36:57.827Z,67.92
2017-04-20T06:37:56.343Z,67.90
2017-04-20T06:38:54.938Z,67.60
2017-04-20T06:39:53.452Z,67.39
2017-04-20T06:40:51.961Z,66.86
2017-04-20T06:41:50.455Z,66.61
2017-04-20T06:42:49.167Z,66.53
2017-04-20T06:43:47.660Z,65.88
2017-04-20T06:44:46.203Z,65.67
2017-04-20T06:45:44.698Z,65.82
2017-04-20T06:46:43.234Z,65.57
2017-04-20T06:47:41.764Z,66.01
2017-04-20T06:48:40.723Z,66.10
2017-04-20T06:49:39.243Z,66.28
2017-04-20T06:50:37.755Z,66.12
2017-04-20T06:51:36.323Z,66.54
2017-04-20T06:52:34.910Z,66.58
2017-04-20T06:53:33.897Z,66.07
2017-04-20T06:54:32.451Z,66.14
2017-04-20T06:55:30.947Z,66.68
2017-04-20T06:56:29.559Z,65.71
2017-04-20T06:57:28.110Z,65.41
2017-04-20T06:58:26.618Z,65.30
2017-04-20T06:59:25.330Z,65.77
2017-04-20T07:00:23.889Z,65.46
2017-04-20T07:01:22.395Z,65.28
2017-04-20T07:02:20.943Z,64.99
2017-04-20T07:03:19.467Z,64.64
2017-04-20T07:04:17.983Z,64.76
2017-04-20T07:05:16.619Z,64.84
2017-04-20T07:06:15.132Z,64.75
2017-04-20T07:07:13.651Z,64.90
2017-04-20T07:08:12.174Z,64.56
2017-04-20T07:09:10.810Z,64.50
2017-04-20T07:10:09.379Z,64.22
2017-04-20T07:11:07.900Z,64.01
2017-04-20T07:12:06.426Z,64.12
2017-04-20T07:13:05.050Z,64.10
2017-04-20T07:14:03.592Z,64.03
2017-04-20T07:15:02.474Z,63.79
2017-04-20T07:16:01.223Z,63.68
2017-04-20T07:16:59.916Z,63.94
2017-04-20T07:17:58.454Z,64.07
2017-04-20T07:18:57.110Z,63.92
2017-04-20T07:19:55.712Z,63.69
2017-04-20T07:20:54.351Z,63.52
2017-04-20T07:21:52.875Z,63.43
2017-04-20T07:22:51.389Z,62.91
2017-04-20T07:23:49.959Z,62.80
2017-04-20T07:24:48.653Z,62.45
2017-04-20T07:25:47.558Z,62.35
2017-04-20T07:26:46.178Z,62.46
2017-04-20T07:27:44.704Z,62.09
2017-04-20T07:28:43.212Z,62.22
2017-04-20T07:29:41.707Z,62.46
2017-04-20T07:30:40.240Z,62.75
2017-04-20T07:31:38.844Z,62.69
2017-04-20T07:32:37.515Z,62.82
2017-04-20T07:33:36.127Z,62.84
2017-04-20T07:34:34.622Z,62.71
2017-04-20T07:35:33.111Z,62.24
2017-04-20T07:36:31.849Z,61.84
2017-04-20T07:37:30.464Z,61.43
2017-04-20T07:38:29.033Z,61.42
2017-04-20T07:39:27.561Z,61.14
2017-04-20T07:40:26.055Z,60.72
2017-04-20T07:41:24.604Z,60.55
2017-04-20T07:42:23.167Z,60.95
2017-04-20T07:43:21.708Z,60.69
2017-04-20T07:44:20.205Z,60.57
2017-04-20T07:45:18.743Z,61.55
2017-04-20T07:46:17.436Z,60.83
2017-04-20T07:47:16.319Z,60.63
2017-04-20T07:48:14.820Z,59.93
2017-04-20T07:49:13.643Z,58.73
2017-04-20T07:50:12.167Z,59.06
2017-04-20T07:51:10.708Z,59.12
2017-04-20T07:52:09.318Z,59.61
2017-04-20T07:53:07.995Z,59.73
2017-04-20T07:54:06.614Z,59.67
2017-04-20T07:55:05.174Z,59.46
2017-04-20T07:56:03.679Z,59.13
2017-04-20T07:57:02.299Z,59.16
2017-04-20T07:58:01.267Z,59.21
2017-04-20T07:58:59.835Z,58.83
2017-04-20T07:59:58.455Z,58.78
2017-04-20T08:00:57.046Z,58.80
2017-04-20T08:01:55.546Z,58.66
2017-04-20T08:02:54.066Z,58.53
2017-04-20T08:03:52.651Z,58.25
2017-04-20T08:04:51.175Z,57.83
2017-04-20T08:05:49.734Z,58.55
2017-04-20T08:06:48.243Z,57.87
2017-04-20T08:07:46.795Z,56.58
2017-04-20T08:08:45.527Z,55.38
2017-04-20T08:09:44.031Z,54.74
2017-04-20T08:10:42.591Z,54.49
2017-04-20T08:11:41.121Z,55.14
2017-04-20T08:12:39.726Z,55.82
2017-04-20T08:13:38.288Z,56.01
2017-04-20T08:14:36.831Z,55.86
2017-04-20T08:15:35.343Z,54.97
2017-04-20T08:16:34.138Z,55.08
2017-04-20T08:17:33.779Z,55.15
2017-04-20T08:18:32.283Z,54.98
2017-04-20T08:19:30.994Z,55.01
2017-04-20T08:20:29.511Z,55.15
2017-04-20T08:21:28.086Z,53.86
2017-04-20T08:22:26.647Z,53.29
2017-04-20T08:23:25.171Z,53.58
2017-04-20T08:24:23.679Z,53.42
2017-04-20T08:25:22.562Z,53.61
2017-04-20T08:26:21.078Z,53.48
2017-04-20T08:27:19.627Z,53.74
2017-04-20T08:28:18.316Z,53.77
2017-04-20T08:29:16.890Z,53.48
2017-04-20T08:30:15.619Z,53.08
2017-04-20T08:31:14.183Z,52.61
2017-04-20T08:32:12.690Z,52.99
2017-04-20T08:33:11.194Z,53.21
2017-04-20T08:34:09.860Z,52.23
2017-04-20T08:35:08.413Z,52.56
2017-04-20T08:36:07.239Z,52.58
2017-04-20T08:37:05.759Z,52.32
2017-04-20T08:38:04.319Z,52.36
2017-04-20T08:39:02.889Z,51.67
2017-04-20T08:40:01.419Z,51.96
2017-04-20T08:40:59.965Z,51.38
2017-04-20T08:41:58.583Z,51.06
2017-04-20T08:42:57.139Z,51.11
2017-04-20T08:43:55.678Z,50.98
2017-04-20T08:44:54.326Z,50.71
2017-04-20T08:45:52.885Z,48.63
2017-04-20T08:46:51.824Z,48.91
2017-04-20T08:47:50.363Z,49.63
2017-04-20T08:48:48.867Z,49.85
2017-04-20T08:49:47.404Z,48.76
2017-04-20T08:50:46.083Z,48.15
2017-04-20T08:51:44.652Z,47.50
2017-04-20T08:52:43.280Z,46.36
2017-04-20T08:53:41.975Z,45.92
2017-04-20T08:54:40.594Z,45.32
2017-04-20T08:55:39.142Z,45.66
2017-04-20T08:56:37.715Z,45.99
2017-04-20T08:57:36.638Z,44.07
2017-04-20T08:58:35.215Z,43.08
2017-04-20T08:59:33.738Z,43.73
2017-04-20T09:00:32.363Z,43.97
2017-04-20T09:01:30.866Z,43.35
2017-04-20T09:02:29.474Z,43.42
2017-04-20T09:03:28.124Z,43.57
2017-04-20T09:04:27.720Z,42.66
2017-04-20T09:05:26.242Z,43.09
2017-04-20T09:06:24.788Z,42.09
2017-04-20T09:07:23.332Z,40.60
2017-04-20T09:08:21.966Z,38.48
2017-04-20T09:09:20.506Z,37.93
2017-04-20T09:10:19.059Z,38.63
2017-04-20T09:11:17.582Z,38.60
2017-04-20T09:12:16.131Z,37.98
2017-04-20T09:13:14.688Z,36.88
2017-04-20T09:14:13.239Z,37.04
2017-04-20T09:15:11.823Z,37.38
2017-04-20T09:16:10.436Z,37.18
2017-04-20T09:17:09.181Z,37.50
2017-04-20T09:18:07.715Z,38.01
2017-04-20T09:19:06.682Z,37.36
2017-04-20T09:20:05.399Z,37.62
2017-04-20T09:21:04.050Z,37.79
2017-04-20T09:22:02.692Z,38.27
2017-04-20T09:23:01.334Z,37.96
2017-04-20T09:23:59.929Z,38.09
2017-04-20T09:24:58.579Z,38.57
2017-04-20T09:25:57.104Z,38.72
2017-04-20T09:26:55.743Z,37.97
2017-04-20T09:27:54.406Z,38.29
2017-04-20T09:28:52.937Z,39.14
2017-04-20T09:29:51.635Z,39.17
2017-04-20T09:30:50.178Z,39.49
2017-04-20T09:31:49.947Z,39.92
2017-04-20T09:32:48.543Z,40.26
2017-04-20T09:33:47.123Z,40.07
2017-04-20T09:34:45.739Z,39.90
2017-04-20T09:35:44.335Z,40.59
2017-04-20T09:36:42.871Z,40.74
2017-04-20T09:37:41.404Z,40.28
2017-04-20T09:38:39.958Z,39.92
2017-04-20T09:39:38.536Z,39.71
2017-04-20T09:40:37.615Z,39.64
2017-04-20T09:41:36.156Z,39.42
2017-04-20T09:42:35.021Z,38.96
2017-04-20T09:43:33.590Z,39.05
2017-04-20T09:44:33.018Z,39.52
2017-04-20T09:45:31.574Z,39.83
2017-04-20T09:46:30.228Z,39.88
2017-04-20T09:47:28.792Z,39.99
2017-04-20T09:48:27.333Z,39.95
2017-04-20T09:49:25.899Z,40.07
2017-04-20T09:50:24.434Z,40.01
2017-04-20T09:51:23.058Z,40.45
2017-04-20T09:52:21.772Z,39.46
2017-04-20T09:53:20.346Z,39.28
2017-04-20T09:54:18.922Z,39.65
2017-04-20T09:55:17.495Z,39.31
2017-04-20T09:56:16.060Z,39.13
2017-04-20T09:57:14.605Z,38.50
2017-04-20T09:58:13.156Z,39.74
2017-04-20T09:59:11.787Z,39.81
2017-04-20T10:00:10.449Z,40.07
2017-04-20T10:01:09.030Z,39.15
2017-04-20T10:02:07.584Z,39.14
2017-04-20T10:03:06.447Z,39.80
2017-04-20T10:04:04.972Z,37.72
2017-04-20T10:05:03.499Z,37.04
2017-04-20T10:06:02.043Z,36.48
2017-04-20T10:07:00.638Z,36.63
2017-04-20T10:07:59.123Z,36.64
2017-04-20T10:08:57.763Z,36.91
2017-04-20T10:09:56.331Z,37.71
2017-04-20T10:10:54.867Z,38.42
2017-04-20T10:11:53.435Z,37.83
2017-04-20T10:12:52.355Z,38.14
2017-04-20T10:13:51.252Z,37.38
2017-04-20T10:14:49.755Z,38.39
2017-04-20T10:15:48.267Z,38.67
2017-04-20T10:16:46.808Z,38.72
2017-04-20T10:17:45.319Z,37.37
2017-04-20T10:18:43.886Z,38.36
2017-04-20T10:19:42.437Z,36.85
2017-04-20T10:20:40.954Z,37.18
2017-04-20T10:21:39.486Z,37.49
2017-04-20T10:22:38.120Z,37.14
2017-04-20T10:23:36.634Z,37.81
2017-04-20T10:24:35.472Z,37.41
2017-04-20T10:25:34.053Z,37.01
2017-04-20T10:26:32.563Z,36.79
2017-04-20T10:27:31.103Z,36.85
2017-04-20T10:28:29.633Z,36.62
2017-04-20T10:29:28.244Z,36.69
2017-04-20T10:30:26.933Z,36.26
2017-04-20T10:31:25.531Z,35.45
2017-04-20T10:32:24.105Z,35.34
2017-04-20T10:33:22.647Z,35.02
2017-04-20T10:34:21.180Z,34.56
2017-04-20T10:35:20.174Z,33.87
2017-04-20T10:36:18.711Z,34.87
2017-04-20T10:37:17.339Z,34.61
2017-04-20T10:38:15.902Z,33.47
2017-04-20T10:39:14.424Z,33.46
2017-04-20T10:40:13.010Z,33.22
2017-04-20T10:41:11.570Z,32.72
2017-04-20T10:42:10.102Z,33.22
2017-04-20T10:43:08.628Z,33.26
2017-04-20T10:44:07.252Z,33.31
2017-04-20T10:45:05.762Z,32.62
2017-04-20T10:46:04.495Z,33.74
2017-04-20T10:47:03.011Z,32.87
2017-04-20T10:48:01.535Z,33.24
2017-04-20T10:49:00.047Z,33.41
2017-04-20T10:49:58.632Z,33.95
2017-04-20T10:50:57.251Z,34.14
2017-04-20T10:51:55.833Z,33.87
2017-04-20T10:52:54.386Z,33.11
2017-04-20T10:53:52.936Z,33.78
2017-04-20T10:54:51.463Z,33.51
2017-04-20T10:55:50.024Z,33.30
2017-04-20T10:56:48.739Z,33.23
2017-04-20T10:57:47.295Z,35.16
2017-04-20T10:58:45.840Z,33.17
2017-04-20T10:59:44.346Z,34.05
2017-04-20T11:00:42.894Z,34.15
2017-04-20T11:01:41.552Z,33.31
2017-04-20T11:02:40.180Z,33.92
2017-04-20T11:03:38.809Z,33.49
2017-04-20T11:04:37.391Z,33.34
2017-04-20T11:05:35.924Z,33.14
2017-04-20T11:06:34.447Z,33.31
2017-04-20T11:07:33.133Z,33.73
2017-04-20T11:08:31.811Z,32.61
2017-04-20T11:09:30.338Z,32.06
2017-04-20T11:10:28.888Z,32.30
2017-04-20T11:11:27.434Z,32.38
2017-04-20T11:12:25.959Z,32.20
2017-04-20T11:13:24.543Z,32.13
2017-04-20T11:14:23.099Z,32.70
2017-04-20T11:15:21.635Z,32.68
2017-04-20T11:16:20.190Z,32.16
2017-04-20T11:17:18.791Z,31.58
2017-04-20T11:18:17.562Z,31.24
2017-04-20T11:19:16.121Z,31.52
2017-04-20T11:20:14.707Z,31.20
2017-04-20T11:21:13.440Z,30.92
2017-04-20T11:22:12.008Z,31.00
2017-04-20T11:23:10.788Z,31.36
2017-04-20T11:24:09.471Z,31.16
2017-04-20T11:25:08.104Z,31.78
2017-04-20T11:26:06.636Z,31.79
2017-04-20T11:27:05.162Z,31.56
2017-04-20T11:28:03.670Z,31.53
2017-04-20T11:29:02.179Z,30.63
2017-04-20T11:30:00.834Z,30.17
2017-04-20T11:30:59.382Z,30.56
2017-04-20T11:31:57.909Z,30.59
2017-04-20T11:32:56.431Z,31.31
2017-04-20T11:33:55.041Z,31.17
2017-04-20T11:34:53.595Z,31.19
2017-04-20T11:35:52.190Z,30.26
2017-04-20T11:36:50.877Z,30.70
2017-04-20T11:37:49.498Z,31.19
2017-04-20T11:38:48.074Z,31.80
2017-04-20T11:39:46.755Z,30.31
2017-04-20T11:40:45.379Z,30.38
2017-04-20T11:41:44.109Z,30.11
2017-04-20T11:42:42.763Z,29.94
2017-04-20T11:43:41.388Z,29.68
2017-04-20T11:44:40.011Z,29.76
2017-04-20T11:45:38.641Z,31.07
2017-04-20T11:46:37.439Z,30.82
2017-04-20T11:47:35.966Z,31.31
2017-04-20T11:48:34.566Z,29.53
2017-04-20T11:49:33.175Z,30.17
2017-04-20T11:50:31.743Z,30.61
2017-04-20T11:51:30.566Z,30.59
2017-04-20T11:52:29.160Z,30.39
2017-04-20T11:53:27.760Z,30.54
2017-04-20T11:54:26.377Z,30.52
2017-04-20T11:55:24.976Z,30.67
2017-04-20T11:56:23.501Z,30.41
2017-04-20T11:57:22.243Z,29.41
2017-04-20T11:58:20.793Z,29.36
2017-04-20T11:59:19.319Z,29.03
2017-04-20T12:00:17.923Z,29.49
2017-04-20T12:01:16.515Z,29.10
2017-04-20T12:02:15.027Z,29.42
2017-04-20T12:03:14.187Z,29.68
2017-04-20T12:04:12.890Z,29.71
2017-04-20T12:05:11.425Z,29.89
2017-04-20T12:06:09.966Z,29.22
2017-04-20T12:07:08.616Z,28.57
2017-04-20T12:08:07.466Z,27.77
2017-04-20T12:09:06.234Z,26.92
2017-04-20T12:10:04.896Z,27.60
2017-04-20T12:11:04.423Z,27.82
2017-04-20T12:12:02.985Z,27.29
2017-04-20T12:13:01.563Z,27.33
2017-04-20T12:14:00.292Z,27.53
2017-04-20T12:14:58.835Z,27.61
2017-04-20T12:15:57.380Z,27.26
2017-04-20T12:16:56.047Z,26.24
2017-04-20T12:17:54.560Z,26.96
2017-04-20T12:18:53.470Z,27.17
2017-04-20T12:19:52.127Z,27.35
2017-04-20T12:20:50.783Z,27.95
2017-04-20T12:21:49.411Z,26.94
2017-04-20T12:22:47.936Z,27.65
2017-04-20T12:23:46.532Z,28.69
2017-04-20T12:24:45.269Z,27.27
2017-04-20T12:25:43.994Z,27.17
2017-04-20T12:26:42.559Z,27.33
2017-04-20T12:27:41.078Z,27.81
2017-04-20T12:28:39.631Z,27.71
2017-04-20T12:29:38.560Z,28.28
2017-04-20T12:30:37.214Z,27.77
2017-04-20T12:31:35.801Z,28.62
2017-04-20T12:32:34.484Z,28.20
2017-04-20T12:33:33.118Z,27.95
2017-04-20T12:34:31.646Z,26.92
2017-04-20T12:35:30.274Z,27.44
2017-04-20T12:36:28.832Z,27.04
2017-04-20T12:37:27.343Z,26.85